Time;durP1;ratioP1;P1;durP2;ratioP2;P2;SDS_P1;SDS_P2;PMS_P1;PMS_P2;Temp;Humidity;BMP_temperature;BMP_pressure;BME280_temperature;BME280_humidity;BME280_pressure;Samples;Min_cycle;Max_cycle;Signal;HPM_P1;HPM_P2
2023/01/22 00:01:43;;;;;;;16.77;7.90;;;;;;;;;;4981397;28;20045;-76
2023/01/22 00:04:10;;;;;;;11.77;7.13;;;;;;;;;;4980676;28;20065;-76
2023/01/22 00:06:36;;;;;;;11.63;6.75;;;;;;;;;;4998792;28;20403;-76
2023/01/22 00:09:02;;;;;;;12.23;7.10;;;;;;;;;;4983226;28;20482;-76
2023/01/22 00:11:29;;;;;;;12.73;7.45;;;;;;;;;;4997851;28;20128;-76
2023/01/22 00:13:55;;;;;;;12.27;7.38;;;;;;;;;;4999451;28;20046;-76
2023/01/22 00:16:21;;;;;;;12.52;6.72;;;;;;;;;;4978660;28;20107;-76
2023/01/22 00:18:47;;;;;;;10.85;6.97;;;;;;;;;;4996983;28;20046;-76
2023/01/22 00:21:13;;;;;;;12.50;7.57;;;;;;;;;;5002435;28;20030;-76
2023/01/22 00:23:39;;;;;;;11.80;7.00;;;;;;;;;;4986242;28;20038;-76
2023/01/22 00:26:09;;;;;;;13.23;8.15;;;;;;;;;;4985105;28;20050;-76
2023/01/22 00:28:36;;;;;;;12.40;7.07;;;;;;;;;;4981887;28;20034;-76
2023/01/22 00:31:04;;;;;;;12.88;7.50;;;;;;;;;;4996149;28;20488;-77
2023/01/22 00:33:30;;;;;;;12.52;6.53;;;1.10;1.00;;;;;;4981976;28;20038;-76
2023/01/22 00:35:55;;;;;;;10.70;6.38;;;1.20;1.00;;;;;;5003118;28;20487;-76
2023/01/22 00:38:21;;;;;;;10.60;6.25;;;1.10;1.00;;;;;;4995653;28;20026;-76
2023/01/22 00:40:47;;;;;;;11.07;6.43;;;;;;;;;;5003287;28;20101;-76
2023/01/22 00:43:13;;;;;;;10.93;6.55;;;;;;;;;;4996616;28;20466;-76
2023/01/22 00:45:39;;;;;;;10.70;6.85;;;;;;;;;;4997647;28;20064;-76
2023/01/22 00:48:05;;;;;;;11.60;6.60;;;;;;;;;;4999421;28;20715;-75
2023/01/22 00:50:31;;;;;;;10.80;6.97;;;;;;;;;;4997153;28;20045;-75
2023/01/22 00:52:57;;;;;;;12.52;6.80;;;;;;;;;;4984804;28;20045;-75
2023/01/22 00:55:23;;;;;;;12.13;6.80;;;1.00;1.00;;;;;;5007778;28;20038;-75
2023/01/22 00:57:49;;;;;;;13.98;7.72;;;;;;;;;;4979735;28;20069;-76
2023/01/22 01:00:16;;;;;;;13.25;8.55;;;;;;;;;;4995080;28;20121;-75
2023/01/22 01:05:27;;;;;;;11.45;6.57;;;1.40;1.00;;;;;;4980746;28;20500;-75
2023/01/22 01:07:53;;;;;;;10.93;6.60;;;0.90;1.00;;;;;;4986248;28;20088;-75
2023/01/22 01:10:19;;;;;;;12.02;6.07;;;;;;;;;;4997424;28;20081;-75
2023/01/22 01:12:45;;;;;;;12.00;6.70;;;;;;;;;;4982246;28;20518;-75
2023/01/22 01:15:11;;;;;;;11.48;6.60;;;;;;;;;;4976640;28;20042;-75
2023/01/22 01:17:37;;;;;;;11.40;7.22;;;;;;;;;;4980748;28;20042;-75
2023/01/22 01:20:03;;;;;;;11.52;6.68;;;;;;;;;;4983629;28;20518;-75
2023/01/22 01:22:29;;;;;;;12.02;6.88;;;;;;;;;;4982164;28;20095;-75
2023/01/22 01:24:55;;;;;;;12.40;6.55;;;;;;;;;;4987183;28;20084;-75
2023/01/22 01:27:21;;;;;;;12.15;7.00;;;;;;;;;;4981800;28;20503;-75
2023/01/22 01:29:47;;;;;;;11.38;6.93;;;;;;;;;;4981252;28;20156;-75
2023/01/22 01:32:13;;;;;;;13.05;6.47;;;0.50;1.00;;;;;;4995111;28;20128;-75
2023/01/22 01:34:39;;;;;;;11.02;6.95;;;;;;;;;;4998758;28;20519;-75
2023/01/22 01:37:05;;;;;;;11.50;6.70;;;;;;;;;;4981115;28;20091;-75
2023/01/22 01:39:31;;;;;;;12.20;7.32;;;;;;;;;;4983163;28;20137;-75
2023/01/22 01:41:57;;;;;;;14.38;7.72;;;;;;;;;;4992495;28;20059;-75
2023/01/22 01:44:26;;;;;;;12.43;7.43;;;;;;;;;;4959084;28;20045;-75
2023/01/22 01:47:04;;;;;;;11.20;7.00;;;;;;;;;;4979908;28;20046;-75
2023/01/22 01:49:32;;;;;;;10.90;6.25;;;;;;;;;;4998904;28;20046;-75
2023/01/22 01:52:08;;;;;;;10.75;6.50;;;;;;;;;;4997695;28;20050;-75
2023/01/22 01:54:35;;;;;;;13.32;6.95;;;;;;;;;;4983871;28;20041;-76
2023/01/22 01:57:07;;;;;;;11.40;6.53;;;;;;;;;;4999824;28;20107;-75
2023/01/22 01:59:34;;;;;;;11.23;6.63;;;0.80;1.00;;;;;;4996816;28;20407;-75
2023/01/22 02:02:01;;;;;;;10.25;5.82;;;;;;;;;;4999264;28;20030;-75
2023/01/22 02:04:27;;;;;;;9.57;5.70;;;;;;;;;;4997667;28;20491;-75
2023/01/22 02:06:53;;;;;;;13.90;6.85;;;;;;;;;;4998388;28;20044;-76
2023/01/22 02:09:20;;;;;;;10.98;6.40;;;;;;;;;;4979638;28;20038;-75
2023/01/22 02:11:47;;;;;;;12.80;6.60;;;1.00;1.00;;;;;;5010304;28;20038;-75
2023/01/22 02:14:15;;;;;;;12.00;6.53;;;;;;;;;;4969715;28;20049;-75
2023/01/22 02:16:41;;;;;;;12.45;6.70;;;;;;;;;;5001717;28;20500;-75
2023/01/22 02:19:07;;;;;;;12.35;6.43;;;;;;;;;;5003762;28;20042;-76
2023/01/22 02:21:37;;;;;;;11.80;6.35;;;0.90;1.00;;;;;;5000015;28;20065;-75
2023/01/22 02:24:13;;;;;;;11.98;6.28;;;;;;;;;;5009690;28;20512;-75
2023/01/22 02:26:40;;;;;;;11.52;6.85;;;;;;;;;;4989346;28;20038;-75
2023/01/22 02:29:07;;;;;;;13.15;6.75;;;;;;;;;;4983117;28;20074;-74
2023/01/22 02:31:33;;;;;;;14.98;6.50;;;;;;;;;;4982576;28;20475;-74
2023/01/22 02:34:00;;;;;;;11.30;6.43;;;0.90;1.00;;;;;;4997704;28;20411;-74
2023/01/22 02:36:27;;;;;;;15.75;7.00;;;;;;;;;;4988671;28;20053;-74
2023/01/22 02:38:53;;;;;;;10.18;6.13;;;;;;;;;;4982332;28;20503;-75
2023/01/22 02:41:19;;;;;;;11.80;6.75;;;;;;;;;;4989234;28;20408;-74
2023/01/22 02:43:45;;;;;;;12.88;6.22;;;;;;;;;;4999845;28;20044;-74
2023/01/22 02:46:11;;;;;;;13.00;7.13;;;;;;;;;;4984730;28;20041;-75
2023/01/22 02:48:37;;;;;;;11.85;6.43;;;;;;;;;;4999714;28;20066;-74
2023/01/22 02:51:03;;;;;;;11.07;5.50;;;;;;;;;;4982777;28;20038;-74
2023/01/22 02:53:29;;;;;;;9.63;5.32;;;;;;;;;;4984418;28;20097;-74
2023/01/22 02:55:55;;;;;;;11.38;5.40;;;;;;;;;;4983101;28;20061;-75
2023/01/22 02:58:21;;;;;;;11.88;6.18;;;;;;;;;;5002540;28;20046;-74
2023/01/22 03:00:47;;;;;;;11.45;5.07;;;;;;;;;;4982523;28;20050;-74
2023/01/22 03:03:16;;;;;;;10.98;5.20;;;1.10;1.00;;;;;;4978275;28;20053;-74
2023/01/22 03:05:49;;;;;;;9.23;4.70;;;;;;;;;;5003290;28;20065;-75
2023/01/22 03:08:15;;;;;;;11.77;5.13;;;;;;;;;;4981955;28;20096;-74
2023/01/22 03:10:41;;;;;;;8.98;4.32;;;;;;;;;;4985545;28;20046;-74
2023/01/22 03:21:21;;;;;;;9.63;4.90;;;;;;;;;;4995574;28;20411;-74
2023/01/22 03:23:51;;;;;;;7.93;4.20;;;;;;;;;;5004242;28;20313;-75
2023/01/22 03:26:18;;;;;;;9.40;4.78;;;;;;;;;;4980025;28;20092;-75
2023/01/22 03:28:44;;;;;;;8.27;4.63;;;;;;;;;;4986533;28;20048;-75
2023/01/22 03:31:11;;;;;;;8.57;4.40;;;;;;;;;;4997963;28;20303;-75
2023/01/22 03:33:37;;;;;;;9.40;5.07;;;;;;;;;;4985061;28;20042;-76
2023/01/22 03:36:13;;;;;;;7.82;4.10;;;;;;;;;;4983486;28;20038;-75
2023/01/22 03:38:41;;;;;;;8.40;3.75;;;;;;;;;;4999886;28;20034;-76
2023/01/22 03:41:11;;;;;;;8.23;4.03;;;;;;;;;;5004896;28;20047;-75
2023/01/22 03:43:37;;;;;;;8.43;3.97;;;;;;;;;;4985846;28;20034;-75
2023/01/22 03:46:05;;;;;;;9.40;4.75;;;2.10;1.00;;;;;;4981201;28;20042;-75
2023/01/22 03:48:32;;;;;;;7.72;4.00;;;;;;;;;;4984837;28;20062;-75
2023/01/22 03:51:03;;;;;;;8.60;3.72;;;;;;;;;;5000718;28;20088;-76
2023/01/22 03:53:29;;;;;;;8.50;3.80;;;;;;;;;;4984260;28;20447;-75
2023/01/22 03:55:57;;;;;;;9.98;4.25;;;;;;;;;;4978683;28;20123;-76
2023/01/22 03:58:23;;;;;;;11.15;4.03;;;;;;;;;;5002693;28;20046;-75
2023/01/22 04:00:49;;;;;;;10.05;4.57;;;;;;;;;;4987943;28;20038;-76
2023/01/22 04:03:15;;;;;;;9.65;3.50;;;;;;;;;;5002334;28;20042;-75
2023/01/22 04:05:41;;;;;;;8.90;3.53;;;;;;;;;;4997568;28;20034;-75
2023/01/22 04:08:07;;;;;;;10.13;4.13;;;;;;;;;;4979961;28;20041;-75
2023/01/22 04:10:33;;;;;;;8.95;3.67;;;;;;;;;;5004139;28;20038;-76
2023/01/22 04:12:59;;;;;;;12.20;4.75;;;;;;;;;;5001260;28;20042;-75
2023/01/22 04:15:25;;;;;;;8.48;3.88;;;;;;;;;;4987385;28;20041;-75
2023/01/22 04:17:51;;;;;;;10.15;3.92;;;;;;;;;;4998855;28;20412;-75
2023/01/22 04:20:18;;;;;;;7.50;3.60;;;;;;;;;;5000793;28;20050;-75
2023/01/22 04:22:44;;;;;;;8.82;3.78;;;;;;;;;;4981147;28;20045;-75
2023/01/22 04:25:10;;;;;;;10.20;4.00;;;;;;;;;;4987375;28;20062;-75
2023/01/22 04:27:36;;;;;;;8.38;3.72;;;2.10;1.00;;;;;;4984512;28;20073;-75
2023/01/22 04:30:04;;;;;;;9.48;4.97;;;;;;;;;;4983354;28;20048;-75
2023/01/22 04:32:30;;;;;;;8.13;3.55;;;;;;;;;;4979704;28;20038;-75
2023/01/22 04:34:56;;;;;;;10.45;4.90;;;;;;;;;;4998393;28;20104;-75
2023/01/22 04:37:22;;;;;;;8.55;3.55;;;;;;;;;;4979361;28;20046;-75
2023/01/22 04:39:48;;;;;;;11.15;4.18;;;;;;;;;;4981719;28;20617;-76
2023/01/22 04:42:14;;;;;;;24.00;5.25;;;;;;;;;;4982428;28;20073;-76
2023/01/22 04:44:39;;;;;;;8.57;4.10;;;2.40;1.00;;;;;;5002995;28;20045;-76
2023/01/22 04:47:05;;;;;;;12.18;4.10;;;2.30;1.00;;;;;;5007312;28;20033;-75
2023/01/22 04:49:31;;;;;;;8.55;4.05;;;;;;;;;;4994301;28;20080;-76
2023/01/22 04:51:57;;;;;;;8.95;3.88;;;;;;;;;;4998554;28;20046;-75
2023/01/22 04:54:23;;;;;;;8.43;4.18;;;;;;;;;;4978317;28;20046;-75
2023/01/22 04:56:49;;;;;;;8.95;4.40;;;;;;;;;;5002560;28;20034;-75
2023/01/22 04:59:15;;;;;;;11.10;4.20;;;;;;;;;;4985586;28;20114;-76
2023/01/22 05:01:41;;;;;;;7.97;3.92;;;;;;;;;;4988235;28;20041;-75
2023/01/22 05:04:07;;;;;;;7.60;3.85;;;;;;;;;;4984609;28;20041;-75
2023/01/22 05:06:33;;;;;;;7.82;4.13;;;;;;;;;;4978826;28;20498;-75
2023/01/22 05:08:59;;;;;;;10.35;3.88;;;;;;;;;;4982549;28;20034;-75
2023/01/22 05:11:25;;;;;;;8.13;4.05;;;;;;;;;;4977876;28;20042;-75
2023/01/22 05:13:51;;;;;;;8.18;4.25;;;;;;;;;;4996969;28;20060;-76
2023/01/22 05:16:17;;;;;;;10.57;4.25;;;;;;;;;;5002903;28;20492;-75
2023/01/22 05:18:43;;;;;;;7.75;3.53;;;2.50;1.00;;;;;;4979623;28;20076;-75
2023/01/22 05:21:09;;;;;;;7.85;3.92;;;;;;;;;;5001393;28;20065;-75
2023/01/22 05:23:35;;;;;;;7.93;4.03;;;;;;;;;;4978961;28;20117;-75
2023/01/22 05:26:01;;;;;;;10.40;4.20;;;;;;;;;;4998424;28;20101;-75
2023/01/22 05:28:27;;;;;;;8.15;4.15;;;;;;;;;;4999820;28;20034;-75
2023/01/22 05:30:52;;;;;;;8.45;4.13;;;2.70;1.00;;;;;;4995872;28;20438;-76
2023/01/22 05:33:18;;;;;;;7.28;3.47;;;;;;;;;;5002435;28;20037;-75
2023/01/22 05:35:44;;;;;;;8.48;4.30;;;;;;;;;;4980494;28;20513;-74
2023/01/22 05:38:10;;;;;;;9.05;3.60;;;2.80;1.00;;;;;;4995406;28;20209;-75
2023/01/22 05:40:36;;;;;;;7.32;3.63;;;;;;;;;;4998210;28;20133;-75
2023/01/22 05:43:03;;;;;;;12.55;3.50;;;;;;;;;;4999090;28;20045;-75
2023/01/22 05:45:29;;;;;;;7.97;3.40;;;;;;;;;;5006345;28;20045;-75
2023/01/22 05:47:55;;;;;;;8.23;3.88;;;;;;;;;;4980522;28;20038;-75
2023/01/22 05:50:21;;;;;;;7.65;4.65;;;2.70;1.00;;;;;;4985025;28;20236;-75
2023/01/22 05:52:47;;;;;;;7.63;4.07;;;;;;;;;;4997029;28;20038;-75
2023/01/22 05:55:13;;;;;;;7.47;4.10;;;;;;;;;;4984027;28;20085;-75
2023/01/22 05:57:39;;;;;;;8.50;4.35;;;;;;;;;;5006750;28;20045;-75
2023/01/22 06:00:07;;;;;;;8.48;4.43;;;3.20;1.00;;;;;;4988528;28;20038;-75
2023/01/22 06:02:34;;;;;;;8.82;4.45;;;;;;;;;;5004554;28;20042;-75
2023/01/22 06:05:00;;;;;;;9.70;4.75;;;;;;;;;;4971108;28;20088;-75
2023/01/22 06:07:29;;;;;;;9.32;4.45;;;;;;;;;;4978255;28;20035;-75
2023/01/22 06:09:54;;;;;;;11.15;4.22;;;2.80;1.00;;;;;;4999330;28;20124;-74
2023/01/22 06:12:21;;;;;;;10.48;4.97;;;3.20;1.00;;;;;;4998396;28;20132;-75
2023/01/22 06:14:47;;;;;;;8.02;4.10;;;;;;;;;;4984377;28;20035;-75
2023/01/22 06:17:13;;;;;;;11.07;4.70;;;;;;;;;;4998214;28;20046;-75
2023/01/22 06:19:39;;;;;;;12.45;4.28;;;;;;;;;;4987523;28;20117;-76
2023/01/22 06:22:05;;;;;;;6.80;3.67;;;;;;;;;;4981638;28;20044;-75
2023/01/22 06:24:31;;;;;;;7.75;3.80;;;;;;;;;;5000826;28;20038;-75
2023/01/22 06:26:57;;;;;;;8.02;3.90;;;;;;;;;;4999389;28;20034;-75
2023/01/22 06:29:23;;;;;;;8.95;4.35;;;;;;;;;;4989552;28;20112;-74
2023/01/22 06:31:49;;;;;;;6.75;4.30;;;;;;;;;;4988001;28;20135;-75
2023/01/22 06:34:15;;;;;;;7.40;3.63;;;;;;;;;;4984585;28;20105;-74
2023/01/22 06:36:41;;;;;;;7.28;4.03;;;;;;;;;;4984222;28;20038;-75
2023/01/22 06:39:07;;;;;;;9.27;3.90;;;;;;;;;;4967315;28;20504;-74
2023/01/22 06:41:33;;;;;;;7.35;3.83;;;;;;;;;;4999996;28;20435;-75
2023/01/22 06:43:59;;;;;;;10.57;4.20;;;;;;;;;;5004276;28;20041;-74
2023/01/22 06:46:25;;;;;;;7.88;3.70;;;2.80;1.00;;;;;;4985805;28;20042;-74
2023/01/22 06:48:51;;;;;;;7.35;4.07;;;;;;;;;;5006726;28;20046;-74
2023/01/22 06:51:17;;;;;;;8.35;3.80;;;;;;;;;;4992727;28;20050;-74
2023/01/22 06:53:43;;;;;;;8.57;3.50;;;;;;;;;;4983039;28;20045;-75
2023/01/22 06:56:09;;;;;;;7.05;3.38;;;;;;;;;;5010105;28;20037;-74
2023/01/22 06:58:35;;;;;;;7.55;4.20;;;;;;;;;;4998051;28;20085;-74
2023/01/22 07:01:02;;;;;;;7.68;3.60;;;;;;;;;;4978727;28;20136;-75
2023/01/22 07:03:28;;;;;;;7.72;3.55;;;;;;;;;;5008015;28;20471;-74
2023/01/22 07:05:58;;;;;;;8.75;3.92;;;;;;;;;;4985197;28;20041;-74
2023/01/22 07:08:24;;;;;;;7.85;3.75;;;;;;;;;;4992886;28;20065;-74
2023/01/22 07:10:50;;;;;;;8.45;4.13;;;;;;;;;;4978674;28;20049;-74
2023/01/22 07:13:16;;;;;;;8.82;4.82;;;;;;;;;;4967222;28;20377;-75
2023/01/22 07:15:42;;;;;;;8.57;3.88;;;;;;;;;;4997510;28;20091;-75
2023/01/22 07:18:09;;;;;;;7.45;3.80;;;;;;;;;;4985782;28;20141;-75
2023/01/22 07:20:35;;;;;;;9.05;4.10;;;;;;;;;;4985742;28;20042;-75
2023/01/22 07:23:01;;;;;;;9.57;3.42;;;;;;;;;;4985587;28;20034;-75
2023/01/22 07:25:27;;;;;;;7.80;4.50;;;;;;;;;;4995680;28;20038;-75
2023/01/22 07:28:00;;;;;;;7.20;3.90;;;2.60;1.00;;;;;;4993902;28;20037;-74
2023/01/22 07:30:26;;;;;;;7.07;3.90;;;;;;;;;;4968555;28;20046;-74
2023/01/22 07:32:53;;;;;;;8.20;4.05;;;;;;;;;;4994626;28;20442;-75
2023/01/22 07:35:19;;;;;;;7.88;4.30;;;;;;;;;;4985794;28;20113;-74
2023/01/22 07:37:52;;;;;;;9.07;3.72;;;;;;;;;;4988806;28;20625;-75
2023/01/22 07:40:18;;;;;;;8.00;3.92;;;;;;;;;;4972948;28;20054;-75
2023/01/22 07:42:44;;;;;;;7.93;3.70;;;;;;;;;;4973558;28;20144;-75
2023/01/22 07:45:10;;;;;;;8.85;3.88;;;;;;;;;;4973366;28;20510;-74
2023/01/22 07:47:36;;;;;;;12.23;4.10;;;2.70;1.00;;;;;;4973296;28;20041;-75
2023/01/22 07:50:02;;;;;;;7.75;3.63;;;;;;;;;;4997076;28;20559;-75
2023/01/22 07:52:28;;;;;;;7.40;3.40;;;;;;;;;;4982126;28;20372;-75
2023/01/22 07:54:54;;;;;;;7.72;3.65;;;2.70;1.00;;;;;;4968505;28;20097;-75
2023/01/22 07:57:20;;;;;;;6.95;3.50;;;;;;;;;;4995878;28;20038;-75
2023/01/22 07:59:46;;;;;;;7.20;3.30;;;;;;;;;;4996864;28;20038;-75
2023/01/22 08:02:15;;;;;;;7.30;3.65;;;;;;;;;;4983595;28;20037;-75
2023/01/22 08:04:41;;;;;;;8.70;2.90;;;2.60;1.00;;;;;;4988867;28;20038;-74
2023/01/22 08:07:17;;;;;;;7.10;3.50;;;;;;;;;;5012494;28;20041;-75
2023/01/22 08:09:43;;;;;;;7.65;3.58;;;;;;;;;;4982914;28;20045;-75
2023/01/22 08:12:09;;;;;;;11.85;3.47;;;2.80;1.00;;;;;;4998488;28;20128;-75
2023/01/22 08:14:35;;;;;;;7.28;4.28;;;;;;;;;;5004348;28;20133;-75
2023/01/22 08:17:01;;;;;;;8.68;4.05;;;;;;;;;;4993618;28;20077;-75
2023/01/22 08:19:28;;;;;;;8.45;3.67;;;;;;;;;;5010396;28;20042;-75
2023/01/22 08:21:54;;;;;;;9.10;3.72;;;;;;;;;;5010039;28;20491;-75
2023/01/22 08:24:21;;;;;;;8.25;3.53;;;;;;;;;;5003982;28;20041;-76
2023/01/22 08:26:47;;;;;;;9.32;4.97;;;;;;;;;;5007822;28;20029;-75
2023/01/22 08:29:13;;;;;;;13.90;4.32;;;;;;;;;;5000054;28;20057;-75
2023/01/22 08:31:39;;;;;;;9.73;3.35;;;3.00;1.00;;;;;;4985626;28;20066;-75
2023/01/22 08:34:05;;;;;;;9.55;3.85;;;2.80;1.00;;;;;;4995334;28;20068;-75
2023/01/22 08:36:31;;;;;;;8.05;3.70;;;;;;;;;;5007308;28;20045;-75
2023/01/22 08:38:57;;;;;;;7.18;3.50;;;;;;;;;;4995773;28;20046;-76
2023/01/22 08:41:23;;;;;;;9.90;3.08;;;3.00;1.00;;;;;;4971213;28;20754;-76
2023/01/22 08:43:51;;;;;;;7.55;3.95;;;;;;;;;;4995615;28;20030;-76
2023/01/22 08:46:17;;;;;;;7.88;3.15;;;;;;;;;;4984352;28;20056;-77
2023/01/22 08:48:43;;;;;;;9.18;3.08;;;;;;;;;;4984745;28;20038;-77
2023/01/22 08:51:10;;;;;;;7.43;3.67;;;;;;;;;;4991819;28;20152;-77
2023/01/22 08:53:36;;;;;;;10.80;3.88;;;;;;;;;;4980317;28;20487;-76
2023/01/22 08:56:02;;;;;;;9.10;3.60;;;;;;;;;;4980721;28;20081;-76
2023/01/22 08:58:28;;;;;;;8.40;3.80;;;;;;;;;;4974687;28;20039;-77
2023/01/22 09:00:54;;;;;;;9.45;3.83;;;;;;;;;;4979519;28;20327;-77
2023/01/22 09:03:21;;;;;;;7.35;3.47;;;3.80;1.00;;;;;;4982646;28;20116;-76
2023/01/22 09:05:47;;;;;;;6.78;3.63;;;3.80;1.00;;;;;;4990924;28;20052;-76
2023/01/22 09:08:13;;;;;;;7.22;4.00;;;;;;;;;;4998736;28;20081;-76
2023/01/22 09:10:39;;;;;;;12.02;3.70;;;;;;;;;;4989073;28;20034;-75
2023/01/22 09:13:05;;;;;;;8.15;3.50;;;;;;;;;;4985583;28;20045;-76
2023/01/22 09:15:31;;;;;;;7.05;3.60;;;;;;;;;;4991359;28;20117;-75
2023/01/22 09:17:59;;;;;;;8.85;3.92;;;;;;;;;;4987805;28;20045;-75
2023/01/22 09:20:25;;;;;;;8.73;3.88;;;;;;;;;;4986625;28;20050;-76
2023/01/22 09:22:51;;;;;;;7.20;3.60;;;;;;;;;;4983420;28;20038;-76
2023/01/22 09:25:17;;;;;;;6.78;3.55;;;;;;;;;;5007214;28;20410;-75
2023/01/22 09:27:43;;;;;;;8.10;4.03;;;;;;;;;;4985368;28;20523;-75
2023/01/22 09:30:09;;;;;;;6.88;3.63;;;;;;;;;;5011454;28;20038;-75
2023/01/22 09:32:36;;;;;;;7.85;3.58;;;;;;;;;;5016562;28;20118;-75
2023/01/22 09:35:02;;;;;;;7.32;3.38;;;;;;;;;;5011354;28;20041;-76
2023/01/22 09:37:28;;;;;;;6.90;3.72;;;;;;;;;;4994881;28;20499;-75
2023/01/22 09:39:53;;;;;;;9.15;3.83;;;3.60;1.00;;;;;;5001301;28;20049;-75
2023/01/22 09:42:25;;;;;;;8.50;3.72;;;;;;;;;;4975646;28;20030;-75
2023/01/22 09:44:54;;;;;;;5.85;2.92;;;;;;;;;;4988421;28;20039;-75
2023/01/22 09:47:44;;;;;;;6.03;3.13;;;3.30;1.00;;;;;;4986260;28;20034;-75
2023/01/22 09:50:16;;;;;;;7.78;3.50;;;;;;;;;;5005179;28;20073;-75
2023/01/22 09:52:42;;;;;;;6.97;3.10;;;;;;;;;;4979917;28;20088;-75
2023/01/22 09:55:11;;;;;;;6.75;3.38;;;;;;;;;;4998294;28;20038;-75
2023/01/22 09:57:39;;;;;;;8.25;4.38;;;;;;;;;;5010865;28;20427;-76
2023/01/22 10:00:13;;;;;;;6.70;3.75;;;;;;;;;;4983746;28;20046;-76
2023/01/22 10:02:45;;;;;;;7.70;4.28;;;3.80;1.00;;;;;;5003211;28;20034;-76
2023/01/22 10:05:23;;;;;;;7.93;4.22;;;;;;;;;;4990370;28;20034;-76
2023/01/22 10:07:59;;;;;;;7.72;4.28;;;4.10;1.00;;;;;;5001595;28;20040;-76
2023/01/22 10:10:26;;;;;;;7.57;4.40;;;3.90;1.00;;;;;;4997555;28;20041;-76
2023/01/22 10:12:58;;;;;;;9.07;4.93;;;;;;;;;;5013478;28;20034;-76
2023/01/22 10:15:24;;;;;;;6.88;4.30;;;4.00;1.00;;;;;;5019926;28;20053;-76
2023/01/22 10:17:51;;;;;;;6.70;4.05;;;;;;;;;;4990337;28;20054;-78
2023/01/22 10:20:19;;;;;;;6.43;4.20;;;;;;;;;;4988310;28;20116;-77
2023/01/22 10:22:47;;;;;;;7.43;3.90;;;4.20;1.00;;;;;;4999797;28;20546;-78
2023/01/22 10:25:14;;;;;;;7.88;4.07;;;;;;;;;;5014940;28;20498;-77
2023/01/22 10:27:40;;;;;;;8.70;4.55;;;;;;;;;;5013376;28;20122;-77
2023/01/22 10:30:22;;;;;;;7.57;4.38;;;;;;;;;;4991538;28;20057;-77
2023/01/22 10:33:03;;;;;;;8.45;4.50;;;;;;;;;;4997727;28;20091;-77
2023/01/22 10:35:30;;;;;;;9.82;4.82;;;;;;;;;;4995178;28;20467;-77
2023/01/22 10:37:57;;;;;;;9.57;4.78;;;;;;;;;;4998744;28;20044;-77
2023/01/22 10:40:26;;;;;;;8.77;4.53;;;4.20;1.00;;;;;;4982349;28;20637;-77
2023/01/22 10:43:18;;;;;;;9.20;4.88;;;4.50;1.00;;;;;;5008569;28;20038;-77
2023/01/22 10:45:58;;;;;;;6.55;4.28;;;;;;;;;;4999209;28;20503;-77
2023/01/22 10:48:24;;;;;;;8.73;5.05;;;;;;;;;;4994175;28;20042;-77
2023/01/22 10:51:09;;;;;;;8.20;5.25;;;;;;;;;;5003333;28;20070;-77
2023/01/22 10:53:36;;;;;;;9.68;5.38;;;;;;;;;;4992607;28;20037;-76
2023/01/22 10:56:03;;;;;;;8.25;4.35;;;;;;;;;;4989288;28;20517;-77
2023/01/22 10:58:31;;;;;;;7.68;4.63;;;;;;;;;;4998247;28;20069;-77
2023/01/22 11:01:02;;;;;;;9.10;4.70;;;;;;;;;;5018489;28;20522;-76
2023/01/22 11:03:34;;;;;;;7.78;3.85;;;4.50;1.00;;;;;;5007727;28;20041;-77
2023/01/22 11:06:26;;;;;;;9.98;4.40;;;;;;;;;;4991472;28;20042;-79
2023/01/22 11:09:31;;;;;;;8.10;4.22;;;5.20;1.00;;;;;;4971509;28;20073;-78
2023/01/22 11:12:00;;;;;;;10.68;4.70;;;;;;;;;;4986587;28;20072;-79
2023/01/22 11:14:33;;;;;;;8.73;5.00;;;;;;;;;;4996891;28;20096;-79
2023/01/22 11:17:02;;;;;;;10.57;4.60;;;;;;;;;;4998802;28;20500;-79
2023/01/22 11:19:39;;;;;;;9.80;4.28;;;;;;;;;;5020764;28;20050;-79
2023/01/22 11:22:11;;;;;;;8.20;3.83;;;;;;;;;;4993829;28;20044;-78
2023/01/22 11:24:39;;;;;;;7.60;3.95;;;;;;;;;;4994675;28;20049;-79
2023/01/22 11:27:30;;;;;;;7.45;4.30;;;5.00;1.00;;;;;;4997208;28;20038;-79
2023/01/22 11:30:15;;;;;;;8.25;3.65;;;;;;;;;;4981225;28;20038;-79
2023/01/22 11:32:41;;;;;;;9.50;4.88;;;;;;;;;;4980949;28;20041;-79
2023/01/22 11:35:25;;;;;;;7.00;4.05;;;;;;;;;;4984564;28;20499;-79
2023/01/22 11:38:10;;;;;;;9.52;3.78;;;;;;;;;;5000450;28;20042;-79
2023/01/22 11:40:54;;;;;;;9.20;3.83;;;;;;;;;;4995157;28;20045;-79
2023/01/22 11:43:32;;;;;;;9.15;4.07;;;;;;;;;;4980432;28;20043;-79
2023/01/22 11:46:11;;;;;;;6.63;3.75;;;4.60;99.90;;;;;;4996352;28;20452;-79
2023/01/22 11:48:50;;;;;;;6.85;3.85;;;;;;;;;;4998285;28;20850;-79
2023/01/22 11:51:20;;;;;;;7.30;3.67;;;;;;;;;;4981246;28;20042;-79
2023/01/22 11:54:15;;;;;;;9.50;3.53;;;;;;;;;;5003085;28;20070;-79
2023/01/22 11:56:41;;;;;;;;;;;;;;;;;;4961608;28;20046;-79
2023/01/22 11:59:10;;;;;;;7.93;3.92;;;;;;;;;;4999539;28;19971;-79
2023/01/22 12:01:36;;;;;;;8.55;3.75;;;;;;;;;;4982992;28;20495;-79
2023/01/22 12:04:22;;;;;;;8.80;4.43;;;5.30;1.00;;;;;;4997817;28;20040;-80
2023/01/22 12:06:51;;;;;;;7.40;4.07;;;;;;;;;;4999033;28;20294;-80
2023/01/22 12:09:25;;;;;;;6.80;3.78;;;4.90;99.90;;;;;;5009203;28;20381;-79
2023/01/22 12:11:57;;;;;;;8.80;4.85;;;;;;;;;;5005575;28;20038;-79
2023/01/22 12:14:32;;;;;;;7.63;3.97;;;;;;;;;;4996789;28;20050;-79
2023/01/22 12:17:01;;;;;;;9.98;4.22;;;;;;;;;;4978629;28;20117;-79
2023/01/22 12:19:43;;;;;;;7.80;4.10;;;;;;;;;;4998274;28;20041;-79
2023/01/22 12:22:09;;;;;;;8.50;4.70;;;;;;;;;;4986365;28;20514;-79
2023/01/22 12:24:45;;;;;;;7.93;4.18;;;;;;;;;;4983522;28;20054;-80
2023/01/22 12:27:19;;;;;;;10.98;5.25;;;;;;;;;;4998477;28;20037;-79
2023/01/22 12:29:49;;;;;;;8.30;4.57;;;;;;;;;;4975266;28;20046;-79
2023/01/22 12:32:17;;;;;;;9.80;5.13;;;5.20;99.90;;;;;;4983353;28;20104;-79
2023/01/22 12:34:59;;;;;;;12.90;4.88;;;;;;;;;;4983158;28;20037;-80
2023/01/22 12:37:50;;;;;;;8.63;5.03;;;5.60;1.00;;;;;;5000734;28;20128;-79
2023/01/22 12:40:35;;;;;;;10.23;6.18;;;;;;;;;;4997672;28;20121;-80
2023/01/22 12:43:02;;;;;;;10.27;4.63;;;;;;;;;;4987029;28;20038;-80
2023/01/22 12:45:35;;;;;;;7.53;4.32;;;;;;;;;;4970426;28;20038;-80
2023/01/22 12:48:19;;;;;;;8.43;4.63;;;;;;;;;;5010846;28;20052;-79
2023/01/22 12:50:53;;;;;;;9.85;4.57;;;;;;;;;;4989493;28;20103;-79
2023/01/22 12:53:21;;;;;;;9.88;6.00;;;;;;;;;;5001415;28;20541;-81
2023/01/22 12:56:02;;;;;;;9.95;4.93;;;;;;;;;;4999516;28;20042;-80
2023/01/22 12:58:30;;;;;;;12.20;5.95;;;5.40;99.90;;;;;;4991439;28;20042;-79
2023/01/22 13:01:00;;;;;;;9.40;5.28;;;5.40;99.90;;;;;;4978012;28;20040;-81
2023/01/22 13:03:28;;;;;;;9.85;4.78;;;;;;;;;;4994431;28;20027;-80
2023/01/22 13:05:55;;;;;;;8.38;4.32;;;;;;;;;;4974446;28;20037;-79
2023/01/22 13:08:26;;;;;;;8.65;4.60;;;;;;;;;;5012776;28;20100;-80
2023/01/22 13:10:55;;;;;;;9.60;4.80;;;;;;;;;;4981378;28;20103;-79
2023/01/22 13:13:22;;;;;;;9.27;4.55;;;;;;;;;;5002367;28;20091;-79
2023/01/22 13:15:53;;;;;;;9.02;4.45;;;;;;;;;;4970292;28;20123;-79
2023/01/22 13:18:21;;;;;;;8.93;4.70;;;;;;;;;;4988848;28;20034;-79
2023/01/22 13:20:49;;;;;;;9.32;3.97;;;;;;;;;;4993273;28;20050;-79
2023/01/22 13:23:16;;;;;;;11.63;4.65;;;;;;;;;;5003602;28;20482;-79
2023/01/22 13:25:42;;;;;;;8.95;4.30;;;;;;;;;;4984214;28;20038;-79
2023/01/22 13:28:17;;;;;;;9.02;4.30;;;;;;;;;;5002306;28;20411;-78
2023/01/22 13:30:54;;;;;;;8.57;4.45;;;;;;;;;;5002727;28;20196;-79
2023/01/22 13:33:20;;;;;;;7.22;4.10;;;;;;;;;;4986863;28;20042;-79
2023/01/22 13:35:46;;;;;;;7.97;4.70;;;;;;;;;;5006902;28;20113;-79
2023/01/22 13:38:23;;;;;;;8.98;4.63;;;;;;;;;;4982791;28;20034;-79
2023/01/22 13:41:02;;;;;;;12.70;6.68;;;;;;;;;;5004320;28;20060;-79
2023/01/22 13:43:28;;;;;;;9.07;4.35;;;5.50;99.90;;;;;;5010945;28;20050;-79
2023/01/22 13:45:55;;;;;;;9.75;3.95;;;;;;;;;;5006324;28;20034;-79
2023/01/22 13:48:22;;;;;;;8.48;4.05;;;;;;;;;;4996495;28;20436;-79
2023/01/22 13:50:58;;;;;;;9.48;3.72;;;;;;;;;;5002634;28;20045;-80
2023/01/22 13:53:31;;;;;;;8.77;4.15;;;;;;;;;;4975143;28;20524;-79
2023/01/22 13:55:58;;;;;;;8.38;4.18;;;;;;;;;;4980247;28;20046;-79
2023/01/22 13:58:31;;;;;;;7.82;4.07;;;;;;;;;;4984970;28;20050;-80
2023/01/22 14:00:57;;;;;;;7.20;4.22;;;;;;;;;;4977216;28;20496;-79
2023/01/22 14:03:25;;;;;;;7.45;4.03;;;4.80;99.90;;;;;;4977722;28;20041;-79
2023/01/22 14:06:01;;;;;;;8.40;3.80;;;;;;;;;;4963069;28;20031;-79
2023/01/22 14:08:27;;;;;;;10.65;3.92;;;;;;;;;;4994424;28;20041;-79
2023/01/22 14:10:58;;;;;;;9.90;5.10;;;;;;;;;;4982172;28;20125;-79
2023/01/22 14:13:24;;;;;;;8.35;4.00;;;;;;;;;;5001939;28;20049;-79
2023/01/22 14:15:58;;;;;;;7.68;4.15;;;;;;;;;;4983639;28;20543;-80
2023/01/22 14:18:28;;;;;;;8.95;4.30;;;;;;;;;;5003604;28;20466;-79
2023/01/22 14:20:54;;;;;;;10.52;4.00;;;;;;;;;;5014542;28;20050;-80
2023/01/22 14:23:20;;;;;;;7.82;4.45;;;;;;;;;;5002898;28;20059;-79
2023/01/22 14:25:48;;;;;;;9.30;4.45;;;;;;;;;;5019782;28;20562;-79
2023/01/22 14:28:14;;;;;;;8.25;4.60;;;;;;;;;;5022618;28;20046;-79
2023/01/22 14:30:41;;;;;;;9.23;3.97;;;;;;;;;;4995528;28;20037;-79
2023/01/22 14:33:11;;;;;;;11.73;5.25;;;5.60;99.90;;;;;;4993343;28;20810;-79
2023/01/22 14:35:37;;;;;;;9.50;4.47;;;;;;;;;;5023712;28;20079;-81
2023/01/22 14:38:03;;;;;;;9.77;5.25;;;;;;;;;;4993582;28;20045;-78
2023/01/22 14:40:29;;;;;;;10.88;6.43;;;;;;;;;;5011305;28;20134;-79